Time;durP1;ratioP1;P1;durP2;ratioP2;P2;SDS_P1;SDS_P2;PMS_P1;PMS_P2;Temp;Humidity;BMP_temperature;BMP_pressure;BME280_temperature;BME280_humidity;BME280_pressure;Samples;Min_cycle;Max_cycle;Signal;HPM_P1;HPM_P2
2023/08/16 00:01:41;;;;;;;0.10;0.10;;;;;;;;;;5109547;28;20119;-56
2023/08/16 00:04:06;;;;;;;0.10;0.10;;;;;;;;;;5118070;28;20524;-56
2023/08/16 00:06:32;;;;;;;0.10;0.10;;;;;;;;;;5112744;28;20503;-56
2023/08/16 00:08:58;;;;;;;0.10;0.10;;;;;;;;;;5094090;28;20047;-53
2023/08/16 00:11:26;;;;;;;0.10;0.10;;;;;;;;;;5100293;28;20051;-56
2023/08/16 00:13:51;;;;;;;0.10;0.10;;;;;;;;;;5107474;28;20083;-56
2023/08/16 00:16:17;;;;;;;0.10;0.10;;;;;;;;;;5108980;28;20051;-56
2023/08/16 00:18:43;;;;;;;0.10;0.10;;;;;;;;;;5102435;28;20050;-56
2023/08/16 00:21:08;;;;;;;0.20;0.20;;;;;;;;;;5104284;28;20421;-54
2023/08/16 00:23:34;;;;;;;0.10;0.10;;;;;;;;;;5107695;28;20071;-56
2023/08/16 00:25:59;;;;;;;0.10;0.10;;;;;;;;;;5121472;28;20252;-56
2023/08/16 00:28:25;;;;;;;0.10;0.10;;;;;;;;;;5088654;28;20338;-56
2023/08/16 00:30:52;;;;;;;0.10;0.10;;;;;;;;;;5095145;28;20047;-56
2023/08/16 00:33:17;;;;;;;0.10;0.10;;;;;;;;;;5102995;28;20455;-56
2023/08/16 00:35:43;;;;;;;0.10;0.10;;;;;;;;;;5102389;28;20047;-55
2023/08/16 00:38:08;;;;;;;0.10;0.10;;;;;;;;;;5100817;28;20332;-56
2023/08/16 00:40:34;;;;;;;0.10;0.10;;;;;;;;;;5103792;28;20101;-56
2023/08/16 00:42:59;;;;;;;0.10;0.10;;;;;;;;;;5094939;28;20109;-56
2023/08/16 00:45:25;;;;;;;0.10;0.10;;;;;;;;;;5102289;28;20048;-53
2023/08/16 00:47:51;;;;;;;0.10;0.10;;;;;;;;;;5101748;28;20047;-53
2023/08/16 00:50:17;;;;;;;0.10;0.10;;;;;;;;;;5097381;28;20056;-56
2023/08/16 00:52:43;;;;;;;0.10;0.10;;;;;;;;;;5105607;28;20319;-56
2023/08/16 00:55:08;;;;;;;0.10;0.10;;;;;;;;;;5120343;27;20043;-56
2023/08/16 00:57:34;;;;;;;0.10;0.10;;;;;;;;;;5114798;28;20054;-56
2023/08/16 01:00:00;;;;;;;0.10;0.10;;;;;;;;;;5104846;28;20101;-56
2023/08/16 01:02:25;;;;;;;0.10;0.10;;;;;;;;;;5118332;27;20420;-56
2023/08/16 01:04:51;;;;;;;0.10;0.10;;;;;;;;;;5101909;28;20318;-56
2023/08/16 01:07:16;;;;;;;0.10;0.10;;;;;;;;;;5101060;28;20307;-56
2023/08/16 01:09:42;;;;;;;0.10;0.10;;;;;;;;;;5098833;28;20043;-56
2023/08/16 01:12:18;;;;;;;0.10;0.10;;;;;;;;;;5106083;28;20100;-56
2023/08/16 01:14:47;;;;;;;0.10;0.10;;;;;;;;;;5122152;28;20043;-56
2023/08/16 01:17:12;;;;;;;;;;;;;;;;;;5110039;28;20043;-56
2023/08/16 01:19:38;;;;;;;0.10;0.10;;;;;;;;;;5101049;28;19923;-56
2023/08/16 01:22:13;;;;;;;0.10;0.10;;;;;;;;;;5097036;28;20048;-56
2023/08/16 01:24:44;;;;;;;0.10;0.10;;;;;;;;;;5101016;28;20102;-55
2023/08/16 01:27:10;;;;;;;0.10;0.10;;;;;;;;;;5105460;28;20054;-54
2023/08/16 01:29:36;;;;;;;0.10;0.10;;;;;;;;;;5098785;28;20055;-56
2023/08/16 01:32:02;;;;;;;0.10;0.10;;;;;;;;;;5086909;28;20470;-56
2023/08/16 01:34:27;;;;;;;0.10;0.10;;;;;;;;;;5101205;28;20523;-56
2023/08/16 01:36:53;;;;;;;0.10;0.10;;;;;;;;;;5101277;28;20146;-56
2023/08/16 01:39:19;;;;;;;0.10;0.10;;;;;;;;;;5094705;28;20061;-56
2023/08/16 01:41:49;;;;;;;0.10;0.10;;;;;;;;;;5107899;28;20055;-56
2023/08/16 01:44:17;;;;;;;0.10;0.10;;;;;;;;;;5089087;28;20048;-56
2023/08/16 01:46:43;;;;;;;0.10;0.10;;;;;;;;;;5080915;28;20056;-56
2023/08/16 01:49:09;;;;;;;0.10;0.10;;;;;;;;;;5079393;28;20062;-56
2023/08/16 01:51:35;;;;;;;0.10;0.10;;;;;;;;;;5108288;28;20547;-56
2023/08/16 01:54:00;;;;;;;0.10;0.10;;;;;;;;;;5113286;28;20324;-56
2023/08/16 01:56:26;;;;;;;0.10;0.10;;;;;;;;;;5104313;28;20044;-56
2023/08/16 01:58:51;;;;;;;0.10;0.10;;;;;;;;;;5103362;28;20430;-56
2023/08/16 02:01:17;;;;;;;0.10;0.10;;;;;;;;;;5096270;28;20051;-56
2023/08/16 02:03:42;;;;;;;0.10;0.10;;;;;;;;;;5101472;28;20530;-56
2023/08/16 02:06:08;;;;;;;0.13;0.13;;;;;;;;;;5111962;28;20054;-56
2023/08/16 02:08:34;;;;;;;0.15;0.15;;;;;;;;;;5110374;28;20455;-56
2023/08/16 02:10:59;;;;;;;0.10;0.10;;;;;;;;;;5091260;28;20060;-56
2023/08/16 02:13:25;;;;;;;0.10;0.10;;;;;;;;;;5092149;28;20340;-53
2023/08/16 02:15:58;;;;;;;0.13;0.13;;;;;;;;;;5100499;28;20055;-56
2023/08/16 02:18:23;;;;;;;0.10;0.10;;;;;;;;;;5094513;28;20545;-56
2023/08/16 02:20:51;;;;;;;0.10;0.10;;;;;;;;;;5091478;28;20044;-55
2023/08/16 02:23:17;;;;;;;0.10;0.10;;;;;;;;;;5091043;28;20047;-56
2023/08/16 02:25:43;;;;;;;0.10;0.10;;;;;;;;;;5107975;28;20433;-56
2023/08/16 02:28:08;;;;;;;0.10;0.10;;;;;;;;;;5108150;28;20397;-56
2023/08/16 02:30:34;;;;;;;0.10;0.10;;;;;;;;;;5097270;28;20070;-56
2023/08/16 02:33:00;;;;;;;0.10;0.10;;;;;;;;;;5100694;28;20075;-54
2023/08/16 02:35:25;;;;;;;0.10;0.10;;;;;;;;;;5100887;28;20070;-53
2023/08/16 02:37:51;;;;;;;0.10;0.10;;;;;;;;;;5099923;28;20051;-52
2023/08/16 02:40:16;;;;;;;0.10;0.10;;;;;;;;;;5099216;28;20101;-54
2023/08/16 02:42:42;;;;;;;0.10;0.10;;;;;;;;;;5110767;28;20397;-52
2023/08/16 02:45:08;;;;;;;0.10;0.10;;;;;;;;;;5100442;28;20039;-53
2023/08/16 02:47:33;;;;;;;0.10;0.10;;;;;;;;;;5097151;28;20146;-53
2023/08/16 02:49:59;;;;;;;0.10;0.10;;;;;;;;;;5078067;28;20072;-56
2023/08/16 02:52:24;;;;;;;0.10;0.10;;;;;;;;;;5089599;28;20093;-56
2023/08/16 02:54:51;;;;;;;0.10;0.10;;;;;;;;;;5100508;28;20488;-56
2023/08/16 02:57:18;;;;;;;0.10;0.10;;;;;;;;;;5114110;28;20051;-56
2023/08/16 02:59:46;;;;;;;0.20;0.20;;;;;;;;;;5084312;28;20167;-56
2023/08/16 03:02:12;;;;;;;0.10;0.10;;;;;;;;;;5101847;27;20060;-56
2023/08/16 03:04:39;;;;;;;0.10;0.10;;;;;;;;;;5109000;28;20359;-53
2023/08/16 03:07:06;;;;;;;0.20;0.20;;;;;;;;;;5107979;28;20051;-54
2023/08/16 03:09:32;;;;;;;0.15;0.15;;;;;;;;;;5088538;28;20337;-56
2023/08/16 03:11:57;;;;;;;0.10;0.10;;;;;;;;;;5096693;28;20066;-56
2023/08/16 03:14:23;;;;;;;0.10;0.10;;;;;;;;;;5100331;28;20044;-56
2023/08/16 03:16:49;;;;;;;0.10;0.10;;;;;;;;;;5098837;28;20090;-54
2023/08/16 03:19:14;;;;;;;0.10;0.10;;;;;;;;;;5084443;28;20084;-55
2023/08/16 03:21:40;;;;;;;0.10;0.10;;;;;;;;;;5104758;28;20055;-54
2023/08/16 03:24:06;;;;;;;0.10;0.10;;;;;;;;;;5106732;28;20075;-53
2023/08/16 03:26:31;;;;;;;0.10;0.10;;;;;;;;;;5105690;28;20046;-52
2023/08/16 03:28:57;;;;;;;0.10;0.10;;;;;;;;;;5108800;28;20055;-53
2023/08/16 03:31:22;;;;;;;0.10;0.10;;;;;;;;;;5089694;28;20143;-56
2023/08/16 03:33:48;;;;;;;0.10;0.10;;;;;;;;;;5101043;28;20051;-53
2023/08/16 03:36:14;;;;;;;0.10;0.10;;;;;;;;;;5105698;28;20079;-53
2023/08/16 03:38:41;;;;;;;0.13;0.13;;;;;;;;;;5103816;28;20101;-54
2023/08/16 03:41:07;;;;;;;0.10;0.10;;;;;;;;;;5092023;28;20048;-53
2023/08/16 03:43:36;;;;;;;0.10;0.10;;;;;;;;;;5102431;28;20058;-54
2023/08/16 03:46:02;;;;;;;0.20;0.20;;;;;;;;;;5104693;28;20083;-52
2023/08/16 03:48:28;;;;;;;0.10;0.10;;;;;;;;;;5100341;28;20093;-53
2023/08/16 03:50:54;;;;;;;0.10;0.10;;;;;;;;;;5090758;28;20063;-56
2023/08/16 03:53:19;;;;;;;0.10;0.10;;;;;;;;;;5081766;28;20052;-56
2023/08/16 03:55:45;;;;;;;0.10;0.10;;;;;;;;;;5112531;28;20415;-56
2023/08/16 03:58:10;;;;;;;0.20;0.20;;;;;;;;;;5102516;28;20510;-56
2023/08/16 04:00:36;;;;;;;0.30;0.30;;;;;;;;;;5103173;28;20044;-57
2023/08/16 04:03:04;;;;;;;0.10;0.10;;;;;;;;;;5091667;28;20054;-56
2023/08/16 04:05:30;;;;;;;0.10;0.10;;;;;;;;;;5102376;28;20057;-56
2023/08/16 04:07:55;;;;;;;0.10;0.10;;;;;;;;;;5100498;28;20043;-56
2023/08/16 04:10:21;;;;;;;0.10;0.10;;;;;;;;;;5095350;28;20056;-56
2023/08/16 04:12:46;;;;;;;0.10;0.10;;;;;;;;;;5100674;28;20083;-56
2023/08/16 04:15:12;;;;;;;0.10;0.10;;;;;;;;;;5099947;28;20558;-56
2023/08/16 04:17:38;;;;;;;0.10;0.10;;;;;;;;;;5100616;28;20575;-53
2023/08/16 04:20:06;;;;;;;0.10;0.10;;;;;;;;;;5078914;28;20060;-52
2023/08/16 04:22:32;;;;;;;0.10;0.10;;;;;;;;;;5089689;28;20059;-56
2023/08/16 04:24:57;;;;;;;0.10;0.10;;;;;;;;;;5099781;28;20043;-56
2023/08/16 04:27:23;;;;;;;0.10;0.10;;;;;;;;;;5100099;28;20439;-56
2023/08/16 04:29:49;;;;;;;0.10;0.10;;;;;;;;;;5100608;27;20535;-56
2023/08/16 04:32:15;;;;;;;0.10;0.10;;;;;;;;;;5101765;28;20129;-56
2023/08/16 04:34:40;;;;;;;0.10;0.10;;;;;;;;;;5103321;28;20136;-56
2023/08/16 04:37:06;;;;;;;0.10;0.10;;;;;;;;;;5104704;28;20485;-56
2023/08/16 04:39:31;;;;;;;0.10;0.10;;;;;;;;;;5106915;28;20485;-54
2023/08/16 04:41:57;;;;;;;0.10;0.10;;;;;;;;;;5100546;28;20058;-56
2023/08/16 04:44:23;;;;;;;0.10;0.10;;;;;;;;;;5107280;28;20130;-56
2023/08/16 04:46:49;;;;;;;0.10;0.10;;;;;;;;;;5115968;28;20075;-56
2023/08/16 04:49:15;;;;;;;0.10;0.10;;;;;;;;;;5104363;28;20070;-56
2023/08/16 04:51:40;;;;;;;0.10;0.10;;;;;;;;;;5090326;28;20052;-56
2023/08/16 04:54:07;;;;;;;0.10;0.10;;;;;;;;;;5086240;28;20516;-56
2023/08/16 04:56:33;;;;;;;0.10;0.10;;;;;;;;;;5092486;28;20047;-56
2023/08/16 04:58:58;;;;;;;0.10;0.10;;;;;;;;;;5092529;28;20623;-56
2023/08/16 05:01:24;;;;;;;0.10;0.10;;;;;;;;;;5099233;28;20428;-56
2023/08/16 05:03:51;;;;;;;0.10;0.10;;;;;;;;;;5093637;28;20047;-56
2023/08/16 05:06:17;;;;;;;0.28;0.28;;;;;;;;;;5093891;28;20508;-56
2023/08/16 05:08:43;;;;;;;0.20;0.20;;;;;;;;;;5100525;28;20496;-56
2023/08/16 05:11:09;;;;;;;0.10;0.10;;;;;;;;;;5102707;28;20036;-56
2023/08/16 05:13:34;;;;;;;0.10;0.10;;;;;;;;;;5103185;28;20043;-56
2023/08/16 05:16:00;;;;;;;0.10;0.10;;;;;;;;;;5114039;28;20519;-56
2023/08/16 05:18:25;;;;;;;0.20;0.20;;;;;;;;;;5102677;28;20479;-56
2023/08/16 05:20:52;;;;;;;0.10;0.10;;;;;;;;;;5092785;28;20104;-56
2023/08/16 05:23:18;;;;;;;0.10;0.10;;;;;;;;;;5086294;28;20101;-54
2023/08/16 05:25:43;;;;;;;0.10;0.10;;;;;;;;;;5096629;28;20434;-56
2023/08/16 05:28:09;;;;;;;0.10;0.10;;;;;;;;;;5089989;28;20055;-56
2023/08/16 05:30:35;;;;;;;0.10;0.10;;;;;;;;;;5099909;28;20039;-56
2023/08/16 05:33:00;;;;;;;0.20;0.20;;;;;;;;;;5101057;28;20436;-56
2023/08/16 05:35:26;;;;;;;0.10;0.10;;;;;;;;;;5087545;28;20083;-56
2023/08/16 05:37:52;;;;;;;0.10;0.10;;;;;;;;;;5101194;28;20055;-56
2023/08/16 05:40:17;;;;;;;0.10;0.10;;;;;;;;;;5092406;27;20424;-56
2023/08/16 05:42:43;;;;;;;0.10;0.10;;;;;;;;;;5094583;28;20059;-56
2023/08/16 05:45:09;;;;;;;0.10;0.10;;;;;;;;;;5100911;28;20130;-57
2023/08/16 05:47:34;;;;;;;0.10;0.10;;;;;;;;;;5109689;28;20354;-53
2023/08/16 05:50:00;;;;;;;0.10;0.10;;;;;;;;;;5097222;28;20105;-53
2023/08/16 05:52:26;;;;;;;0.10;0.10;;;;;;;;;;5097773;28;20043;-57
2023/08/16 05:54:52;;;;;;;0.10;0.10;;;;;;;;;;5097749;28;20047;-57
2023/08/16 05:57:18;;;;;;;0.10;0.10;;;;;;;;;;5098376;28;20488;-60
2023/08/16 05:59:43;;;;;;;0.10;0.10;;;;;;;;;;5099140;28;20044;-56
2023/08/16 06:02:09;;;;;;;0.10;0.10;;;;;;;;;;5105243;28;20197;-56
2023/08/16 06:04:34;;;;;;;0.10;0.10;;;;;;;;;;5094561;28;20052;-56
2023/08/16 06:07:01;;;;;;;0.10;0.10;;;;;;;;;;5097088;28;20379;-56
2023/08/16 06:09:26;;;;;;;0.10;0.10;;;;;;;;;;5097661;28;20051;-56
2023/08/16 06:11:52;;;;;;;0.10;0.10;;;;;;;;;;5102706;28;20524;-56
2023/08/16 06:14:17;;;;;;;0.20;0.20;;;;;;;;;;5098569;28;20089;-57
2023/08/16 06:16:44;;;;;;;0.10;0.10;;;;;;;;;;5094686;28;20055;-54
2023/08/16 06:19:10;;;;;;;0.10;0.10;;;;;;;;;;5089275;28;20147;-56
2023/08/16 06:21:36;;;;;;;0.10;0.10;;;;;;;;;;5091966;28;20054;-56
2023/08/16 06:24:02;;;;;;;0.10;0.10;;;;;;;;;;5097682;28;20048;-54
2023/08/16 06:26:27;;;;;;;0.10;0.10;;;;;;;;;;5092602;28;20142;-54
2023/08/16 06:28:53;;;;;;;0.10;0.10;;;;;;;;;;5092564;28;20035;-54
2023/08/16 06:31:18;;;;;;;0.10;0.10;;;;;;;;;;5086310;28;20047;-56
2023/08/16 06:33:44;;;;;;;0.10;0.10;;;;;;;;;;5094443;28;20148;-54
2023/08/16 06:36:10;;;;;;;0.10;0.10;;;;;;;;;;5092954;28;20412;-55
2023/08/16 06:38:36;;;;;;;0.10;0.10;;;;;;;;;;5087129;28;20062;-56
2023/08/16 06:41:02;;;;;;;0.30;0.20;;;;;;;;;;5080471;28;20051;-54
2023/08/16 06:43:28;;;;;;;0.73;0.30;;;;;;;;;;5079039;28;20861;-53
2023/08/16 06:45:53;;;;;;;0.20;0.20;;;;;;;;;;5076200;28;20544;-57
2023/08/16 06:48:19;;;;;;;0.10;0.10;;;;;;;;;;5080894;28;20144;-57
2023/08/16 06:50:45;;;;;;;0.10;0.10;;;;;;;;;;5081782;28;20050;-57
2023/08/16 06:53:11;;;;;;;0.10;0.10;;;;;;;;;;5071937;28;20051;-56
2023/08/16 06:55:37;;;;;;;0.10;0.10;;;;;;;;;;5078667;28;20047;-56
2023/08/16 06:58:05;;;;;;;0.10;0.10;;;;;;;;;;5077524;28;20058;-55
2023/08/16 07:00:31;;;;;;;0.10;0.10;;;;;;;;;;5071128;28;20055;-56
2023/08/16 07:02:58;;;;;;;0.52;0.30;;;;;;;;;;5071268;28;20079;-56
2023/08/16 07:05:26;;;;;;;0.10;0.10;;;;;;;;;;5065121;28;20142;-56
2023/08/16 07:07:52;;;;;;;0.10;0.10;;;;;;;;;;5071119;28;20276;-57
2023/08/16 07:10:17;;;;;;;0.10;0.10;;;;;;;;;;5070947;28;20251;-57
2023/08/16 07:12:44;;;;;;;0.10;0.10;;;;;;;;;;5074322;28;20476;-57
2023/08/16 07:15:11;;;;;;;0.10;0.10;;;;;;;;;;5078726;28;20055;-56
2023/08/16 07:17:36;;;;;;;0.10;0.10;;;;;;;;;;5085853;28;20044;-57
2023/08/16 07:20:02;;;;;;;0.10;0.10;;;;;;;;;;5080306;28;20617;-57
2023/08/16 07:22:28;;;;;;;0.10;0.10;;;;;;;;;;5091810;28;20051;-57
2023/08/16 07:24:54;;;;;;;0.10;0.10;;;;;;;;;;5091073;28;20050;-57
2023/08/16 07:27:20;;;;;;;0.10;0.10;;;;;;;;;;5092504;28;20048;-57
2023/08/16 07:29:45;;;;;;;0.25;0.25;;;;;;;;;;5085711;28;20055;-57
2023/08/16 07:32:11;;;;;;;0.25;0.25;;;;;;;;;;5091351;28;20040;-57
2023/08/16 07:34:37;;;;;;;0.10;0.10;;;;;;;;;;5095824;28;20050;-57
2023/08/16 07:37:03;;;;;;;0.20;0.20;;;;;;;;;;5091024;28;20539;-58
2023/08/16 07:39:31;;;;;;;0.10;0.10;;;;;;;;;;5091207;28;20094;-57
2023/08/16 07:41:56;;;;;;;0.17;0.17;;;;;;;;;;5089086;28;20056;-56
2023/08/16 07:44:25;;;;;;;0.20;0.20;;;;;;;;;;5089404;28;20342;-56
2023/08/16 07:46:51;;;;;;;0.10;0.10;;;;;;;;;;5086147;28;20113;-57
2023/08/16 07:49:16;;;;;;;0.10;0.10;;;;;;;;;;5085787;28;20057;-57
2023/08/16 07:51:42;;;;;;;0.10;0.10;;;;;;;;;;5094098;28;20090;-57
2023/08/16 07:54:07;;;;;;;0.10;0.10;;;;;;;;;;5092597;28;20052;-56
2023/08/16 07:56:33;;;;;;;0.10;0.10;;;;;;;;;;5088841;28;20408;-56
2023/08/16 07:58:58;;;;;;;0.20;0.20;;;;;;;;;;5084544;28;20079;-64
2023/08/16 08:01:24;;;;;;;0.10;0.10;;;;;;;;;;5088885;28;20079;-58
2023/08/16 08:03:50;;;;;;;0.10;0.10;;;;;;;;;;5082930;28;20052;-58
2023/08/16 08:06:15;;;;;;;0.10;0.10;;;;;;;;;;5084577;28;20078;-57
2023/08/16 08:08:41;;;;;;;0.10;0.10;;;;;;;;;;5086391;28;20990;-57
2023/08/16 08:11:07;;;;;;;0.10;0.10;;;;;;;;;;5074221;28;20727;-56
2023/08/16 08:13:32;;;;;;;0.10;0.10;;;;;;;;;;5081417;28;20786;-56
2023/08/16 08:16:00;;;;;;;0.32;0.32;;;;;;;;;;5087406;28;20783;-57
2023/08/16 08:18:25;;;;;;;0.10;0.10;;;;;;;;;;5090496;28;20082;-57
2023/08/16 08:20:51;;;;;;;0.10;0.10;;;;;;;;;;5088608;28;20047;-57
2023/08/16 08:23:17;;;;;;;0.20;0.20;;;;;;;;;;5083794;28;20567;-57
2023/08/16 08:25:44;;;;;;;0.35;0.35;;;;;;;;;;5084485;28;20069;-50
2023/08/16 08:28:10;;;;;;;0.10;0.10;;;;;;;;;;5074054;28;20072;-51
2023/08/16 08:30:35;;;;;;;0.20;0.20;;;;;;;;;;5084952;28;20619;-53
2023/08/16 08:33:01;;;;;;;0.10;0.10;;;;;;;;;;5081353;28;20051;-48
2023/08/16 08:35:27;;;;;;;0.13;0.13;;;;;;;;;;5082992;28;20051;-49
2023/08/16 08:37:53;;;;;;;0.25;0.22;;;;;;;;;;5070621;28;20048;-52
2023/08/16 08:40:18;;;;;;;0.10;0.10;;;;;;;;;;5072162;28;20134;-49
2023/08/16 08:42:46;;;;;;;0.15;0.15;;;;;;;;;;5088682;28;20147;-47
2023/08/16 08:45:12;;;;;;;;;;;;;;;;;;5087390;28;20047;-48
2023/08/16 08:47:38;;;;;;;0.10;0.10;;;;;;;;;;5081453;28;19923;-49
2023/08/16 08:50:04;;;;;;;0.10;0.10;;;;;;;;;;5085642;28;20279;-51
2023/08/16 08:52:30;;;;;;;0.20;0.20;;;;;;;;;;5091171;28;20485;-49
2023/08/16 08:54:55;;;;;;;0.25;0.20;;;;;;;;;;5081123;28;20054;-49
2023/08/16 08:57:21;;;;;;;0.20;0.20;;;;;;;;;;5089149;28;20044;-51
2023/08/16 08:59:49;;;;;;;0.10;0.10;;;;;;;;;;5085630;28;20065;-51
2023/08/16 09:02:16;;;;;;;0.10;0.10;;;;;;;;;;5090812;28;20044;-49
2023/08/16 09:04:43;;;;;;;0.10;0.10;;;;;;;;;;5094845;28;20056;-48
2023/08/16 09:07:11;;;;;;;0.20;0.20;;;;;;;;;;5092610;28;20039;-48
2023/08/16 09:09:37;;;;;;;0.10;0.10;;;;;;;;;;5094725;28;20046;-51
2023/08/16 09:12:03;;;;;;;0.10;0.10;;;;;;;;;;5090403;28;20106;-49
2023/08/16 09:14:30;;;;;;;0.10;0.10;;;;;;;;;;5093703;28;20516;-49
2023/08/16 09:16:55;;;;;;;0.10;0.10;;;;;;;;;;5094077;28;20108;-51
2023/08/16 09:19:21;;;;;;;0.10;0.10;;;;;;;;;;5087564;28;20056;-52
2023/08/16 09:21:50;;;;;;;0.10;0.10;;;;;;;;;;5085735;28;20078;-51
2023/08/16 09:24:16;;;;;;;0.20;0.20;;;;;;;;;;5083127;28;20488;-54
2023/08/16 09:26:44;;;;;;;0.15;0.15;;;;;;;;;;5096777;28;20784;-51
2023/08/16 09:29:11;;;;;;;0.10;0.10;;;;;;;;;;5091410;28;20484;-49
2023/08/16 09:31:37;;;;;;;0.10;0.10;;;;;;;;;;5082587;27;20050;-49
2023/08/16 09:34:03;;;;;;;0.17;0.17;;;;;;;;;;5085000;28;20147;-47
2023/08/16 09:36:29;;;;;;;0.13;0.13;;;;;;;;;;5083853;28;20271;-48
2023/08/16 09:39:04;;;;;;;0.10;0.10;;;;;;;;;;5074621;28;20051;-50
2023/08/16 09:41:30;;;;;;;0.10;0.10;;;;;;;;;;5071725;28;20820;-51
2023/08/16 09:44:04;;;;;;;0.20;0.20;;;;;;;;;;5069969;28;20093;-49
2023/08/16 09:46:30;;;;;;;0.10;0.10;;;;;;;;;;5076021;28;20420;-51
2023/08/16 09:49:01;;;;;;;0.20;0.17;;;;;;;;;;5083191;28;20185;-48
2023/08/16 09:51:31;;;;;;;0.10;0.10;;;;;;;;;;5083698;28;20048;-49
2023/08/16 09:54:01;;;;;;;0.15;0.15;;;;;;;;;;5084238;28;20044;-48
2023/08/16 09:56:27;;;;;;;0.10;0.10;;;;;;;;;;5097670;28;20130;-49
2023/08/16 09:58:56;;;;;;;0.10;0.10;;;;;;;;;;5089601;28;20073;-49
2023/08/16 10:01:22;;;;;;;0.10;0.10;;;;;;;;;;5084991;28;20262;-47
2023/08/16 10:03:53;;;;;;;0.10;0.10;;;;;;;;;;5086112;28;20048;-48
2023/08/16 10:06:23;;;;;;;0.13;0.13;;;;;;;;;;5080816;28;20052;-49
2023/08/16 10:09:04;;;;;;;0.10;0.10;;;;;;;;;;5089587;28;20082;-48
2023/08/16 10:11:32;;;;;;;0.10;0.10;;;;;;;;;;5082102;28;20043;-48
2023/08/16 10:13:57;;;;;;;0.10;0.10;;;;;;;;;;5089922;28;20048;-49
2023/08/16 10:16:24;;;;;;;0.17;0.17;;;;;;;;;;5088617;28;20143;-51
2023/08/16 10:18:50;;;;;;;0.10;0.10;;;;;;;;;;5087227;28;20462;-48
2023/08/16 10:21:16;;;;;;;0.10;0.10;;;;;;;;;;5071886;28;20052;-49
2023/08/16 10:23:42;;;;;;;0.20;0.20;;;;;;;;;;5082096;28;20048;-47
2023/08/16 10:26:17;;;;;;;0.10;0.10;;;;;;;;;;5082163;28;20074;-49
2023/08/16 10:28:54;;;;;;;0.10;0.10;;;;;;;;;;5088252;28;20664;-50
2023/08/16 10:31:24;;;;;;;0.10;0.10;;;;;;;;;;5067089;28;20566;-48
2023/08/16 10:33:51;;;;;;;0.20;0.20;;;;;;;;;;5083697;28;20523;-49
2023/08/16 10:36:17;;;;;;;0.10;0.10;;;;;;;;;;5070618;28;20043;-49
2023/08/16 10:38:44;;;;;;;0.10;0.10;;;;;;;;;;5074075;28;20557;-49
2023/08/16 10:41:12;;;;;;;0.10;0.10;;;;;;;;;;5059322;27;20050;-49
2023/08/16 10:43:48;;;;;;;0.10;0.10;;;;;;;;;;5056266;28;20055;-51
2023/08/16 10:46:33;;;;;;;0.10;0.10;;;;;;;;;;5064953;28;20848;-49
2023/08/16 10:48:59;;;;;;;0.20;0.20;;;;;;;;;;5067852;28;20058;-49
2023/08/16 10:51:28;;;;;;;0.10;0.10;;;;;;;;;;5081953;28;20051;-52
2023/08/16 10:53:55;;;;;;;0.10;0.10;;;;;;;;;;5087301;28;20081;-47
2023/08/16 10:56:22;;;;;;;0.60;0.20;;;;;;;;;;5089171;28;20878;-48
2023/08/16 10:58:49;;;;;;;0.10;0.10;;;;;;;;;;5074410;28;20048;-48
2023/08/16 11:01:15;;;;;;;0.10;0.10;;;;;;;;;;5073647;28;20278;-49
2023/08/16 11:03:43;;;;;;;0.10;0.10;;;;;;;;;;5078234;28;20293;-52
2023/08/16 11:06:10;;;;;;;0.10;0.10;;;;;;;;;;5073008;28;20590;-48
2023/08/16 11:08:38;;;;;;;0.15;0.15;;;;;;;;;;5078485;28;20052;-49
2023/08/16 11:11:03;;;;;;;0.10;0.10;;;;;;;;;;5077618;28;20864;-52
2023/08/16 11:13:29;;;;;;;0.10;0.10;;;;;;;;;;5081754;28;20081;-49
2023/08/16 11:15:55;;;;;;;0.10;0.10;;;;;;;;;;5075332;28;20776;-51
2023/08/16 11:18:37;;;;;;;0.10;0.10;;;;;;;;;;5079893;28;20245;-50
2023/08/16 11:21:07;;;;;;;0.10;0.10;;;;;;;;;;5071770;28;20371;-50
2023/08/16 11:23:34;;;;;;;0.38;0.35;;;;;;;;;;5066237;28;20313;-50
2023/08/16 11:26:00;;;;;;;0.10;0.10;;;;;;;;;;5072161;28;20056;-49
2023/08/16 11:28:27;;;;;;;0.10;0.10;;;;;;;;;;5068088;28;20065;-50
2023/08/16 11:30:56;;;;;;;0.10;0.10;;;;;;;;;;5076408;28;20539;-49
2023/08/16 11:33:21;;;;;;;0.10;0.10;;;;;;;;;;5079113;28;20198;-50
2023/08/16 11:35:47;;;;;;;0.10;0.10;;;;;;;;;;5070597;28;20048;-54
2023/08/16 11:38:14;;;;;;;0.10;0.10;;;;;;;;;;5078208;28;20047;-52
2023/08/16 11:40:40;;;;;;;0.10;0.10;;;;;;;;;;5084736;28;20661;-50
2023/08/16 11:43:06;;;;;;;0.10;0.10;;;;;;;;;;5092335;28;20365;-49
2023/08/16 11:45:31;;;;;;;0.20;0.20;;;;;;;;;;5084201;27;20443;-49
2023/08/16 11:47:57;;;;;;;0.10;0.10;;;;;;;;;;5092156;28;20079;-52
2023/08/16 11:50:24;;;;;;;0.10;0.10;;;;;;;;;;5092549;28;20691;-53
2023/08/16 11:53:05;;;;;;;0.10;0.10;;;;;;;;;;5094700;28;20096;-48
2023/08/16 11:55:30;;;;;;;0.10;0.10;;;;;;;;;;5097550;28;20039;-53
2023/08/16 11:58:04;;;;;;;0.10;0.10;;;;;;;;;;5088927;28;20163;-51
2023/08/16 12:00:30;;;;;;;0.25;0.25;;;;;;;;;;5097294;28;20075;-50
2023/08/16 12:02:56;;;;;;;0.20;0.20;;;;;;;;;;5095391;28;20059;-50
2023/08/16 12:05:23;;;;;;;0.10;0.10;;;;;;;;;;5093222;28;20170;-52
2023/08/16 12:07:51;;;;;;;0.20;0.20;;;;;;;;;;5096077;28;20261;-57
2023/08/16 12:10:21;;;;;;;0.10;0.10;;;;;;;;;;5089187;28;20047;-51
2023/08/16 12:12:46;;;;;;;0.10;0.10;;;;;;;;;;5096747;28;20040;-50
2023/08/16 12:15:12;;;;;;;0.10;0.10;;;;;;;;;;5105732;28;20047;-49
2023/08/16 12:17:38;;;;;;;0.10;0.10;;;;;;;;;;5091804;28;20059;-49
2023/08/16 12:20:05;;;;;;;0.10;0.10;;;;;;;;;;5093812;28;20047;-48
2023/08/16 12:22:33;;;;;;;0.10;0.10;;;;;;;;;;5086210;28;20743;-50
2023/08/16 12:24:58;;;;;;;0.10;0.10;;;;;;;;;;5090695;28;20418;-52
2023/08/16 12:27:24;;;;;;;0.20;0.20;;;;;;;;;;5091136;28;20074;-57
2023/08/16 12:29:50;;;;;;;0.20;0.20;;;;;;;;;;5092992;28;20049;-57
2023/08/16 12:32:16;;;;;;;0.10;0.10;;;;;;;;;;5086754;28;20055;-55
2023/08/16 12:34:41;;;;;;;0.30;0.30;;;;;;;;;;5082137;28;20676;-54
2023/08/16 12:37:10;;;;;;;0.10;0.10;;;;;;;;;;5076571;28;20334;-60
2023/08/16 12:39:36;;;;;;;0.10;0.10;;;;;;;;;;5089310;28;20855;-56
2023/08/16 12:42:04;;;;;;;0.40;0.20;;;;;;;;;;5092762;28;20047;-56
2023/08/16 12:44:29;;;;;;;0.10;0.10;;;;;;;;;;5098391;28;20047;-56
2023/08/16 12:46:55;;;;;;;0.10;0.10;;;;;;;;;;5091721;28;20135;-58
2023/08/16 12:49:21;;;;;;;0.10;0.10;;;;;;;;;;5086792;28;20436;-57
2023/08/16 12:51:46;;;;;;;0.10;0.10;;;;;;;;;;5090048;28;20737;-61
2023/08/16 12:54:12;;;;;;;0.20;0.20;;;;;;;;;;5095158;28;20039;-63
2023/08/16 12:56:38;;;;;;;0.30;0.30;;;;;;;;;;5096478;28;20044;-60
2023/08/16 12:59:04;;;;;;;0.10;0.10;;;;;;;;;;5097742;28;20134;-58
2023/08/16 13:01:43;;;;;;;0.10;0.10;;;;;;;;;;5100159;28;20138;-60
2023/08/16 13:04:09;;;;;;;0.10;0.10;;;;;;;;;;5094782;28;20502;-63
2023/08/16 13:06:39;;;;;;;0.10;0.10;;;;;;;;;;5094826;28;20096;-62
2023/08/16 13:09:17;;;;;;;0.20;0.20;;;;;;;;;;5091207;28;20421;-55
2023/08/16 13:11:52;;;;;;;0.10;0.10;;;;;;;;;;5095853;28;20179;-57
2023/08/16 13:14:24;;;;;;;0.17;0.17;;;;;;;;;;5101297;28;20040;-57
2023/08/16 13:16:53;;;;;;;0.10;0.10;;;;;;;;;;5093563;28;20047;-56
2023/08/16 13:19:30;;;;;;;0.10;0.10;;;;;;;;;;5101830;28;20395;-57
2023/08/16 13:22:13;;;;;;;0.10;0.10;;;;;;;;;;5103503;28;20202;-57
2023/08/16 13:24:43;;;;;;;0.10;0.10;;;;;;;;;;5108453;28;20059;-57
2023/08/16 13:27:23;;;;;;;0.10;0.10;;;;;;;;;;5096631;28;20809;-56
2023/08/16 13:30:07;;;;;;;0.10;0.10;;;;;;;;;;5098235;28;20043;-57
2023/08/16 13:32:52;;;;;;;0.10;0.10;;;;;;;;;;5088091;28;20039;-57
2023/08/16 13:35:31;;;;;;;0.10;0.10;;;;;;;;;;5083331;28;20539;-57
2023/08/16 13:37:58;;;;;;;0.30;0.20;;;;;;;;;;5092856;28;20154;-57
2023/08/16 13:40:24;;;;;;;0.25;0.25;;;;;;;;;;5092266;28;20047;-57
2023/08/16 13:42:58;;;;;;;0.20;0.20;;;;;;;;;;5098894;28;20048;-57
2023/08/16 13:45:44;;;;;;;0.10;0.10;;;;;;;;;;5100644;28;20492;-57
2023/08/16 13:48:09;;;;;;;0.10;0.10;;;;;;;;;;5097349;28;20615;-57
2023/08/16 13:50:35;;;;;;;0.28;0.28;;;;;;;;;;5091012;28;20056;-57
2023/08/16 13:53:01;;;;;;;0.10;0.10;;;;;;;;;;5089258;28;20044;-57
2023/08/16 13:55:26;;;;;;;0.10;0.10;;;;;;;;;;5097019;28;20051;-57
2023/08/16 13:57:52;;;;;;;0.10;0.10;;;;;;;;;;5111799;28;20043;-57
2023/08/16 14:00:17;;;;;;;0.15;0.15;;;;;;;;;;5099064;28;20406;-57
2023/08/16 14:02:43;;;;;;;0.10;0.10;;;;;;;;;;5105347;27;20420;-57
2023/08/16 14:05:09;;;;;;;0.10;0.10;;;;;;;;;;5098845;28;20050;-57
2023/08/16 14:07:35;;;;;;;0.10;0.10;;;;;;;;;;5095762;28;20050;-57
2023/08/16 14:10:01;;;;;;;0.10;0.10;;;;;;;;;;5101218;28;20055;-57
2023/08/16 14:12:26;;;;;;;0.10;0.10;;;;;;;;;;5097210;28;20492;-57
2023/08/16 14:14:52;;;;;;;0.10;0.10;;;;;;;;;;5101106;28;20050;-57
2023/08/16 14:17:19;;;;;;;0.10;0.10;;;;;;;;;;5100155;28;20040;-56
2023/08/16 14:19:44;;;;;;;0.10;0.10;;;;;;;;;;5097691;28;20155;-57
2023/08/16 14:22:10;;;;;;;0.10;0.10;;;;;;;;;;5094944;28;20043;-57
2023/08/16 14:24:35;;;;;;;0.10;0.10;;;;;;;;;;5097141;28;20099;-57
2023/08/16 14:27:01;;;;;;;0.10;0.10;;;;;;;;;;5106892;28;20370;-57
2023/08/16 14:29:26;;;;;;;0.10;0.10;;;;;;;;;;5118450;28;20062;-56
2023/08/16 14:31:52;;;;;;;0.10;0.10;;;;;;;;;;5109424;28;20507;-57
2023/08/16 14:34:18;;;;;;;0.10;0.10;;;;;;;;;;5115918;28;20078;-56
2023/08/16 14:36:44;;;;;;;0.10;0.10;;;;;;;;;;5093826;28;20052;-56
2023/08/16 14:39:09;;;;;;;0.10;0.10;;;;;;;;;;5098515;28;20180;-57
2023/08/16 14:41:35;;;;;;;0.10;0.10;;;;;;;;;;5109100;28;20365;-57